Time;durP1;ratioP1;P1;durP2;ratioP2;P2;SDS_P1;SDS_P2;PMS_P1;PMS_P2;Temp;Humidity;BMP_temperature;BMP_pressure;BME280_temperature;BME280_humidity;BME280_pressure;Samples;Min_cycle;Max_cycle;Signal;HPM_P1;HPM_P2
2024/04/09 00:01:04;;;;;;;5.13;2.85;;;;;;;16.79;100.00;99482.81;5219224;27;20433;-73
2024/04/09 00:03:31;;;;;;;4.35;2.50;;;;;;;16.81;100.00;99474.56;5224937;27;20383;-73
2024/04/09 00:05:58;;;;;;;4.50;2.90;;;;;;;16.78;100.00;99480.34;5252610;27;20002;-73
2024/04/09 00:08:28;;;;;;;3.00;2.22;;;;;;;16.76;100.00;99472.50;5339730;26;20045;-80
2024/04/09 00:10:54;;;;;;;3.92;2.63;;;;;;;16.76;100.00;99475.19;5386075;26;20011;-81
2024/04/09 00:13:22;;;;;;;4.88;2.50;;;;;;;16.79;100.00;99464.06;5327892;26;20003;-74
2024/04/09 00:15:49;;;;;;;4.05;2.70;;;;;;;16.81;100.00;99467.38;5357259;26;20011;-73
2024/04/09 00:18:17;;;;;;;3.97;2.20;;;;;;;16.84;100.00;99469.66;5379429;26;20008;-73
2024/04/09 00:20:44;;;;;;;2.20;2.00;;;;;;;16.91;100.00;99467.00;5413204;26;20053;-73
2024/04/09 00:23:18;;;;;;;3.13;2.17;;;;;;;16.87;100.00;99464.91;5355344;26;20010;-74
2024/04/09 00:25:45;;;;;;;3.00;2.38;;;;;;;16.87;100.00;99459.53;5327292;26;20228;-73
2024/04/09 00:28:12;;;;;;;2.80;2.22;;;;;;;16.88;100.00;99464.72;5354603;26;19996;-73
2024/04/09 00:30:41;;;;;;;2.70;2.20;;;;;;;16.88;100.00;99463.88;5354731;26;20046;-74
2024/04/09 00:33:08;;;;;;;2.70;1.98;;;;;;;16.90;100.00;99468.00;5326085;26;20074;-73
2024/04/09 00:35:35;;;;;;;4.43;2.20;;;;;;;16.91;100.00;99460.78;5325655;26;20003;-73
2024/04/09 00:38:06;;;;;;;3.45;2.28;;;;;;;16.98;100.00;99462.44;5325574;26;20045;-73
2024/04/09 00:40:33;;;;;;;2.35;1.95;;;;;;;16.98;100.00;99461.63;5355382;26;20045;-74
2024/04/09 00:43:03;;;;;;;4.75;2.30;;;;;;;17.00;100.00;99470.28;5354221;26;20004;-73
2024/04/09 00:45:29;;;;;;;4.03;2.53;;;;;;;16.85;100.00;99457.88;5326088;26;20072;-73
2024/04/09 00:47:56;;;;;;;4.07;2.75;;;;;;;16.78;100.00;99462.41;5354205;26;20011;-79
2024/04/09 00:50:23;;;;;;;6.20;3.70;;;;;;;16.55;100.00;99456.56;5325709;26;19996;-73
2024/04/09 00:52:51;;;;;;;7.10;3.40;;;;;;;16.44;100.00;99459.78;5353784;26;20430;-74
2024/04/09 00:55:24;;;;;;;6.97;4.18;;;;;;;16.22;100.00;99465.44;5312870;26;20012;-73
2024/04/09 00:57:56;;;;;;;9.88;5.43;;;;;;;16.12;100.00;99476.50;5287243;26;20060;-73
2024/04/09 01:00:23;;;;;;;8.68;5.18;;;;;;;15.96;100.00;99468.78;5284673;26;20017;-74
2024/04/09 01:02:49;;;;;;;9.77;5.45;;;;;;;15.82;100.00;99477.72;5228722;26;20021;-73
2024/04/09 01:05:18;;;;;;;9.38;5.38;;;;;;;15.73;100.00;99476.22;5229218;26;20065;-73
2024/04/09 01:07:44;;;;;;;11.40;5.40;;;;;;;15.51;100.00;99476.47;5228776;26;20129;-73
2024/04/09 01:10:12;;;;;;;10.43;5.85;;;;;;;15.43;100.00;99476.59;5257072;26;20047;-73
2024/04/09 01:12:38;;;;;;;11.60;6.05;;;;;;;15.23;100.00;99477.22;5229027;26;20071;-74
2024/04/09 01:15:06;;;;;;;9.65;5.70;;;;;;;15.23;100.00;99471.03;5292100;26;20005;-74
2024/04/09 01:17:34;;;;;;;12.35;5.95;;;;;;;14.99;100.00;99469.56;5230360;26;20559;-74
2024/04/09 01:20:02;;;;;;;12.43;6.00;;;;;;;14.92;100.00;99459.81;5230074;26;20011;-74
2024/04/09 01:22:31;;;;;;;9.35;5.32;;;;;;;14.89;100.00;99466.38;5284805;26;20394;-74
2024/04/09 01:25:02;;;;;;;9.37;5.27;;;;;;;14.83;100.00;99474.31;5258492;26;19997;-75
2024/04/09 01:27:37;;;;;;;10.38;5.85;;;;;;;14.79;100.00;99473.06;5319366;26;20107;-74
2024/04/09 01:30:05;;;;;;;14.27;6.20;;;;;;;14.84;100.00;99474.13;5319780;26;20000;-75
2024/04/09 01:32:32;;;;;;;11.57;5.10;;;;;;;14.80;100.00;99464.84;5313611;26;20305;-73
2024/04/09 01:35:06;;;;;;;8.27;5.80;;;;;;;14.77;100.00;99473.25;5384123;26;20000;-75
2024/04/09 01:37:33;;;;;;;11.70;6.55;;;;;;;14.75;100.00;99474.44;5356557;26;20393;-74
2024/04/09 01:40:04;;;;;;;13.65;5.85;;;;;;;14.84;100.00;99475.97;5384468;26;20070;-74
2024/04/09 01:42:31;;;;;;;10.30;6.03;;;;;;;14.77;100.00;99477.75;5412929;26;20016;-74
2024/04/09 01:44:57;;;;;;;10.05;5.43;;;;;;;14.74;100.00;99492.34;5313365;26;20004;-75
2024/04/09 01:47:23;;;;;;;12.30;5.57;;;;;;;14.74;100.00;99494.19;5282991;26;19997;-74
2024/04/09 01:49:49;;;;;;;11.93;6.32;;;;;;;14.69;100.00;99501.91;5182073;27;19999;-75
2024/04/09 01:52:15;;;;;;;10.32;6.00;;;;;;;14.72;100.00;99510.41;5182286;27;19999;-74
2024/04/09 01:54:48;;;;;;;16.00;8.63;;;;;;;14.72;100.00;99517.59;5209696;27;20009;-74
2024/04/09 01:57:16;;;;;;;17.35;7.63;;;;;;;14.50;100.00;99523.91;5184023;27;20006;-73
2024/04/09 01:59:44;;;;;;;12.02;6.43;;;;;;;14.66;100.00;99523.69;5179031;27;20004;-74
2024/04/09 02:02:13;;;;;;;12.30;6.00;;;;;;;14.79;100.00;99529.22;5151453;27;20362;-74
2024/04/09 02:04:39;;;;;;;14.25;6.30;;;;;;;14.71;100.00;99527.47;5151937;27;20004;-74
2024/04/09 02:07:05;;;;;;;10.90;6.20;;;;;;;14.76;100.00;99519.69;5136605;27;20759;-74
2024/04/09 02:09:31;;;;;;;11.13;5.90;;;;;;;14.94;100.00;99522.81;5090372;27;20004;-74
2024/04/09 02:11:58;;;;;;;9.77;5.50;;;;;;;15.03;100.00;99519.00;5116444;27;20464;-75
2024/04/09 02:14:24;;;;;;;9.38;5.28;;;;;;;15.12;100.00;99517.03;5116489;27;20376;-74
2024/04/09 02:16:54;;;;;;;14.38;6.32;;;;;;;15.14;100.00;99521.16;5088809;27;20029;-73
2024/04/09 02:19:20;;;;;;;14.30;5.50;;;;;;;15.00;100.00;99518.53;5110859;27;20001;-74
2024/04/09 02:21:46;;;;;;;12.75;5.53;;;;;;;15.11;100.00;99524.22;5174837;27;20002;-73
2024/04/09 02:24:13;;;;;;;12.25;5.47;;;;;;;14.87;100.00;99515.72;5183423;27;20127;-74
2024/04/09 02:26:39;;;;;;;13.95;5.85;;;;;;;14.73;100.00;99525.41;5183185;27;20131;-74
2024/04/09 02:29:05;;;;;;;10.45;4.97;;;;;;;14.87;100.00;99524.56;5210878;27;20003;-75
2024/04/09 02:31:31;;;;;;;8.68;4.60;;;;;;;14.87;100.00;99529.91;5210278;27;20121;-74
2024/04/09 02:33:57;;;;;;;5.30;3.97;;;;;;;14.86;100.00;99530.94;5216348;27;20013;-73
2024/04/09 02:36:24;;;;;;;8.40;4.43;;;;;;;14.89;100.00;99532.41;5216067;27;20002;-74
2024/04/09 02:38:52;;;;;;;8.77;4.18;;;;;;;14.98;100.00;99533.94;5188935;27;20429;-73
2024/04/09 02:41:18;;;;;;;7.57;4.20;;;;;;;14.92;100.00;99532.03;5216119;27;20002;-73
2024/04/09 02:43:44;;;;;;;7.75;4.60;;;;;;;14.92;100.00;99535.53;5150220;27;20071;-73
2024/04/09 02:46:10;;;;;;;7.95;4.18;;;;;;;14.98;100.00;99529.44;5150404;27;20000;-72
2024/04/09 02:48:36;;;;;;;7.15;3.85;;;;;;;15.04;100.00;99530.50;5258082;27;19998;-71
2024/04/09 02:51:03;;;;;;;6.28;3.70;;;;;;;15.05;100.00;99524.97;5222928;27;20145;-81
2024/04/09 02:53:32;;;;;;;6.18;3.80;;;;;;;15.01;100.00;99531.72;5278472;27;20420;-73
2024/04/09 02:55:59;;;;;;;7.38;4.13;;;;;;;14.99;100.00;99530.28;5252313;26;20099;-73
2024/04/09 02:58:26;;;;;;;9.48;5.07;;;;;;;14.96;100.00;99525.31;5344069;26;20023;-73
2024/04/09 03:00:52;;;;;;;4.90;3.15;;;;;;;15.02;100.00;99537.91;5315217;26;20020;-69
2024/04/09 03:03:18;;;;;;;5.05;3.28;;;;;;;15.16;100.00;99537.00;5286352;26;19996;-70
2024/04/09 03:05:45;;;;;;;4.57;2.97;;;;;;;15.27;100.00;99547.22;5230131;26;19996;-68
2024/04/09 03:08:10;;;;;;;4.03;2.72;;;;;;;15.21;100.00;99556.00;5230271;26;20001;-68
2024/04/09 03:10:36;;;;;;;3.58;2.80;;;;;;;15.33;100.00;99559.84;5286117;26;20111;-69
2024/04/09 03:13:03;;;;;;;5.13;2.80;;;;;;;15.22;100.00;99566.53;5286423;26;20483;-72
2024/04/09 03:15:30;;;;;;;4.15;2.30;;;;;;;15.21;100.00;99553.34;5301016;26;20354;-69
2024/04/09 03:17:58;;;;;;;3.72;2.30;;;;;;;15.13;100.00;99545.41;5319983;26;20066;-70
2024/04/09 03:20:25;;;;;;;4.85;2.50;;;;;;;15.03;100.00;99536.88;5292933;26;19996;-71
2024/04/09 03:22:52;;;;;;;3.65;2.30;;;;;;;14.88;100.00;99538.78;5321767;26;19996;-67
2024/04/09 03:25:18;;;;;;;4.70;2.20;;;;;;;14.75;100.00;99538.59;5320811;26;20024;-70
2024/04/09 03:27:44;;;;;;;2.97;2.10;;;;;;;14.74;100.00;99531.59;5263492;26;20010;-68
2024/04/09 03:30:10;;;;;;;3.42;2.20;;;;;;;14.68;100.00;99530.50;5320044;26;20003;-68
2024/04/09 03:32:37;;;;;;;5.00;2.58;;;;;;;14.63;100.00;99534.75;5291439;26;20000;-70
2024/04/09 03:35:03;;;;;;;3.38;2.03;;;;;;;14.63;100.00;99540.09;5320615;26;20011;-70
2024/04/09 03:37:33;;;;;;;3.42;2.28;;;;;;;14.59;100.00;99554.84;5378483;26;20028;-68
2024/04/09 03:39:59;;;;;;;2.70;1.52;;;;;;;14.51;100.00;99560.28;5348700;26;20001;-70
2024/04/09 03:42:25;;;;;;;2.17;1.40;;;;;;;14.49;100.00;99544.44;5377875;26;20004;-69
2024/04/09 03:44:51;;;;;;;2.97;1.60;;;;;;;14.46;100.00;99549.31;5349005;26;20011;-69
2024/04/09 03:47:17;;;;;;;3.78;1.80;;;;;;;14.47;100.00;99549.13;5373460;26;20007;-69
2024/04/09 03:49:43;;;;;;;4.50;2.20;;;;;;;14.47;100.00;99553.63;5414643;26;20068;-71
2024/04/09 03:52:08;;;;;;;3.03;1.80;;;;;;;14.56;100.00;99555.22;5356155;26;20010;-69
2024/04/09 03:54:34;;;;;;;5.03;2.80;;;;;;;14.57;100.00;99546.19;5385488;26;20010;-70
2024/04/09 03:57:03;;;;;;;5.65;2.67;;;;;;;14.58;100.00;99546.00;5384992;26;20360;-72
2024/04/09 03:59:32;;;;;;;3.73;2.33;;;;;;;14.64;100.00;99544.41;5385338;26;20002;-71
2024/04/09 04:01:58;;;;;;;4.32;2.25;;;;;;;14.66;100.00;99558.44;5414094;26;20018;-72
2024/04/09 04:04:25;;;;;;;3.88;2.40;;;;;;;14.69;100.00;99550.03;5354720;26;20049;-68
2024/04/09 04:06:52;;;;;;;3.70;2.22;;;;;;;14.75;100.00;99542.13;5445290;26;20018;-70
2024/04/09 04:09:17;;;;;;;5.43;2.50;;;;;;;14.78;100.00;99544.41;5449087;26;20027;-70
2024/04/09 04:11:43;;;;;;;3.83;2.10;;;;;;;14.79;100.00;99542.56;5303606;27;20149;-70
2024/04/09 04:14:09;;;;;;;4.57;2.30;;;;;;;14.78;100.00;99554.25;5275950;27;20009;-72
2024/04/09 04:16:35;;;;;;;3.72;2.35;;;;;;;15.02;100.00;99559.31;5290654;27;20339;-70
2024/04/09 04:19:01;;;;;;;3.20;2.10;;;;;;;14.90;100.00;99560.78;5304791;27;20495;-70
2024/04/09 04:21:27;;;;;;;2.10;1.75;;;;;;;14.79;100.00;99558.63;5276617;27;20013;-71
2024/04/09 04:23:55;;;;;;;3.63;2.20;;;;;;;14.78;100.00;99564.97;5248733;27;20001;-71
2024/04/09 04:26:23;;;;;;;3.53;2.47;;;;;;;14.90;100.00;99555.44;5307241;27;20072;-69
2024/04/09 04:28:50;;;;;;;4.63;2.80;;;;;;;14.89;100.00;99551.97;5278592;27;20019;-69
2024/04/09 04:31:17;;;;;;;6.47;2.30;;;;;;;15.18;100.00;99556.38;5278118;27;20016;-70
2024/04/09 04:33:44;;;;;;;5.05;2.53;;;;;;;15.15;100.00;99557.59;5307147;27;20005;-69
2024/04/09 04:36:11;;;;;;;3.63;2.67;;;;;;;15.31;100.00;99569.94;5278349;27;20044;-71
2024/04/09 04:38:38;;;;;;;2.22;1.80;;;;;;;15.50;100.00;99573.84;5307506;27;20001;-77
2024/04/09 04:41:07;;;;;;;2.22;1.75;;;;;;;15.52;100.00;99577.16;5279468;27;20487;-71
2024/04/09 04:43:33;;;;;;;2.95;2.28;;;;;;;15.67;100.00;99583.28;5332041;26;20037;-68
2024/04/09 04:46:00;;;;;;;2.38;2.13;;;;;;;15.77;100.00;99571.25;5376464;26;20000;-69
2024/04/09 04:48:27;;;;;;;3.35;2.00;;;;;;;16.10;100.00;99563.44;5360200;26;20042;-68
2024/04/09 04:50:54;;;;;;;4.60;2.00;;;;;;;16.01;100.00;99562.78;5388528;26;20428;-69
2024/04/09 04:53:20;;;;;;;4.07;2.25;;;;;;;16.19;100.00;99568.47;5355551;26;20062;-68
2024/04/09 04:55:46;;;;;;;2.42;1.95;;;;;;;16.30;100.00;99573.28;5417571;26;20009;-69
2024/04/09 04:58:12;;;;;;;2.50;1.77;;;;;;;16.38;100.00;99564.25;5381832;26;20003;-68
2024/04/09 05:00:41;;;;;;;2.22;1.80;;;;;;;16.44;100.00;99567.03;5353068;26;20077;-75
2024/04/09 05:03:09;;;;;;;2.42;1.83;;;;;;;16.51;100.00;99562.53;5381838;26;20421;-70
2024/04/09 05:05:36;;;;;;;2.40;1.77;;;;;;;16.63;100.00;99576.22;5388529;26;20003;-68
2024/04/09 05:08:03;;;;;;;2.33;1.58;;;;;;;16.66;100.00;99576.66;5358641;26;20009;-71
2024/04/09 05:10:29;;;;;;;5.10;2.10;;;;;;;16.76;100.00;99577.09;5414580;26;20003;-71
2024/04/09 05:12:55;;;;;;;2.58;1.80;;;;;;;16.93;100.00;99590.19;5417572;26;20149;-70
2024/04/09 05:15:23;;;;;;;2.40;1.83;;;;;;;17.08;100.00;99593.56;5297796;26;20014;-69
2024/04/09 05:17:51;;;;;;;4.05;2.10;;;;;;;17.14;100.00;99590.91;5387134;26;20063;-69
2024/04/09 05:20:18;;;;;;;5.55;2.38;;;;;;;17.14;100.00;99587.38;5413537;26;20035;-70
2024/04/09 05:22:47;;;;;;;4.38;2.53;;;;;;;17.19;100.00;99588.41;5383185;26;20042;-69
2024/04/09 05:25:15;;;;;;;3.88;2.40;;;;;;;17.19;100.00;99579.56;5417303;26;20015;-69
2024/04/09 05:27:42;;;;;;;5.47;2.65;;;;;;;17.17;100.00;99581.63;5417047;26;19999;-70
2024/04/09 05:30:12;;;;;;;3.35;1.90;;;;;;;17.22;100.00;99577.28;5443930;26;20019;-69
2024/04/09 05:32:41;;;;;;;3.95;2.03;;;;;;;17.32;100.00;99585.78;5384427;26;20453;-69
2024/04/09 05:35:09;;;;;;;5.00;2.23;;;;;;;17.45;100.00;99587.72;5385343;26;20000;-69
2024/04/09 05:37:35;;;;;;;3.03;1.80;;;;;;;17.49;100.00;99592.47;5384756;26;20014;-69
2024/04/09 05:40:02;;;;;;;4.93;2.10;;;;;;;17.54;100.00;99590.03;5384534;26;20000;-69
2024/04/09 05:42:30;;;;;;;3.35;2.20;;;;;;;17.49;100.00;99584.44;5384785;26;20006;-69
2024/04/09 05:44:56;;;;;;;3.10;2.03;;;;;;;17.44;100.00;99578.00;5355192;26;19999;-69
2024/04/09 05:47:24;;;;;;;3.72;2.10;;;;;;;17.42;100.00;99582.72;5415375;26;20318;-69
2024/04/09 05:49:50;;;;;;;21.15;3.70;;;;;;;17.41;100.00;99581.88;5385474;26;20003;-69
2024/04/09 05:52:16;;;;;;;17.35;3.13;;;;;;;17.40;100.00;99576.72;5384499;26;20000;-69
2024/04/09 05:54:45;;;;;;;10.23;2.88;;;;;;;17.49;100.00;99568.31;5413752;26;20001;-70
2024/04/09 05:57:11;;;;;;;14.30;3.42;;;;;;;17.46;100.00;99573.25;5384760;26;20069;-72
2024/04/09 05:59:37;;;;;;;4.72;2.72;;;;;;;17.50;100.00;99572.66;5385081;26;20008;-69
2024/04/09 06:02:04;;;;;;;5.70;2.60;;;;;;;17.55;100.00;99574.72;5355200;26;20433;-69
2024/04/09 06:04:31;;;;;;;3.80;2.33;;;;;;;17.58;100.00;99574.31;5355107;26;20069;-69
2024/04/09 06:06:59;;;;;;;4.72;2.72;;;;;;;17.53;100.00;99574.91;5383782;26;20040;-70
2024/04/09 06:09:25;;;;;;;5.03;2.33;;;;;;;17.52;100.00;99578.66;5384572;26;20008;-69
2024/04/09 06:11:51;;;;;;;4.63;3.00;;;;;;;17.53;100.00;99585.66;5413860;26;19999;-69
2024/04/09 06:14:17;;;;;;;7.13;2.95;;;;;;;17.50;100.00;99572.66;5413355;26;20008;-69
2024/04/09 06:16:42;;;;;;;7.25;3.35;;;;;;;17.54;100.00;99573.06;5415442;26;20003;-69
2024/04/09 06:19:08;;;;;;;4.80;2.75;;;;;;;17.77;100.00;99573.50;5354987;26;20007;-68
2024/04/09 06:21:34;;;;;;;5.32;2.95;;;;;;;18.03;100.00;99585.13;5383706;26;20004;-69
2024/04/09 06:24:00;;;;;;;5.38;2.50;;;;;;;18.27;100.00;99594.38;5383813;26;20014;-69
2024/04/09 06:26:26;;;;;;;7.78;2.80;;;;;;;18.29;100.00;99598.53;5355504;26;20023;-70
2024/04/09 06:28:52;;;;;;;6.85;3.03;;;;;;;18.30;100.00;99594.81;5327075;26;20386;-70
2024/04/09 06:31:18;;;;;;;13.15;3.25;;;;;;;18.20;100.00;99590.88;5387121;26;20032;-70
2024/04/09 06:33:46;;;;;;;13.82;4.40;;;;;;;18.12;100.00;99591.94;5416587;26;20422;-70
2024/04/09 06:36:14;;;;;;;14.75;4.15;;;;;;;18.03;100.00;99589.66;5416507;26;20032;-73
2024/04/09 06:38:40;;;;;;;9.95;4.90;;;;;;;17.96;100.00;99581.56;5387883;26;20495;-69
2024/04/09 06:41:06;;;;;;;5.28;3.10;;;;;;;18.01;100.00;99583.66;5386946;26;20016;-70
2024/04/09 06:43:32;;;;;;;5.25;2.72;;;;;;;18.15;100.00;99580.75;5416364;26;20000;-69
2024/04/09 06:45:59;;;;;;;4.38;2.58;;;;;;;18.10;100.00;99569.78;5357663;26;20011;-71
2024/04/09 06:48:26;;;;;;;7.45;3.17;;;;;;;18.29;100.00;99581.56;5344218;26;20144;-69
2024/04/09 06:50:52;;;;;;;5.97;3.17;;;;;;;18.49;100.00;99574.34;5315294;26;20443;-69
2024/04/09 06:53:18;;;;;;;6.10;3.20;;;;;;;18.74;100.00;99567.25;5315220;26;20085;-70
2024/04/09 06:55:45;;;;;;;5.70;3.08;;;;;;;19.03;100.00;99576.63;5315649;26;20009;-76
2024/04/09 06:58:14;;;;;;;5.50;2.90;;;;;;;19.30;100.00;99576.34;5287347;26;20001;-71
2024/04/09 07:00:42;;;;;;;5.55;3.00;;;;;;;19.75;100.00;99579.78;5315346;26;20001;-70
2024/04/09 07:03:08;;;;;;;8.15;2.65;;;;;;;20.17;100.00;99578.25;5288460;26;20007;-72
2024/04/09 07:05:34;;;;;;;5.07;2.20;;;;;;;20.43;100.00;99583.41;5320304;26;20913;-68
2024/04/09 07:08:01;;;;;;;4.60;2.50;;;;;;;20.53;100.00;99583.69;5349605;26;20043;-69
2024/04/09 07:10:28;;;;;;;3.28;1.98;;;;;;;20.51;100.00;99585.81;5349968;26;20011;-68
2024/04/09 07:12:54;;;;;;;3.70;1.98;;;;;;;20.44;100.00;99583.16;5321338;26;19997;-67
2024/04/09 07:15:26;;;;;;;6.10;2.60;;;;;;;20.34;100.00;99564.00;5321180;26;20059;-67
2024/04/09 07:17:53;;;;;;;3.45;2.30;;;;;;;20.46;100.00;99559.50;5351334;26;20015;-68
2024/04/09 07:20:23;;;;;;;14.43;3.30;;;;;;;20.70;100.00;99564.00;5286729;26;20001;-67
2024/04/09 07:22:50;;;;;;;6.63;2.80;;;;;;;20.99;100.00;99557.88;5315654;26;20009;-67
2024/04/09 07:25:16;;;;;;;7.78;2.60;;;;;;;21.15;100.00;99559.13;5352598;26;20000;-74
2024/04/09 07:27:43;;;;;;;11.93;2.63;;;;;;;21.41;100.00;99554.19;5379573;26;20000;-67
2024/04/09 07:30:10;;;;;;;6.65;2.67;;;;;;;22.06;100.00;99563.22;5350358;26;20000;-68
2024/04/09 07:32:36;;;;;;;3.70;1.70;;;;;;;22.71;100.00;99559.31;5349806;26;20012;-69
2024/04/09 07:35:03;;;;;;;4.45;2.47;;;;;;;23.06;100.00;99565.47;5349791;26;20007;-67
2024/04/09 07:37:31;;;;;;;5.53;2.42;;;;;;;23.32;100.00;99563.31;5349686;26;20008;-67
2024/04/09 07:39:57;;;;;;;4.90;2.50;;;;;;;23.55;100.00;99555.06;5349334;26;20000;-68
2024/04/09 07:42:23;;;;;;;5.30;2.90;;;;;;;23.74;100.00;99562.75;5378124;26;20003;-68
2024/04/09 07:44:50;;;;;;;5.72;3.38;;;;;;;24.03;100.00;99560.84;5349582;26;20122;-69
2024/04/09 07:47:20;;;;;;;7.72;3.95;;;;;;;24.42;100.00;99565.25;5287005;26;20001;-77
2024/04/09 07:49:47;;;;;;;7.00;3.63;;;;;;;24.64;100.00;99571.53;5316016;26;20483;-73
2024/04/09 07:52:13;;;;;;;7.78;4.35;;;;;;;25.20;100.00;99571.22;5346174;26;20288;-69
2024/04/09 07:54:39;;;;;;;5.68;3.20;;;;;;;25.68;100.00;99575.88;5326615;26;20058;-68
2024/04/09 07:57:05;;;;;;;7.82;3.70;;;;;;;25.66;100.00;99570.66;5355454;26;19995;-69
2024/04/09 07:59:31;;;;;;;7.30;3.40;;;;;;;25.30;100.00;99581.38;5355108;26;20007;-69
2024/04/09 08:01:57;;;;;;;7.78;2.42;;;;;;;25.28;100.00;99576.22;5355052;26;20003;-69
2024/04/09 08:04:26;;;;;;;4.32;2.60;;;;;;;25.16;100.00;99569.25;5355522;26;20011;-68
2024/04/09 08:06:54;;;;;;;4.82;2.70;;;;;;;24.82;100.00;99568.56;5314749;26;20335;-69
2024/04/09 08:09:20;;;;;;;4.90;2.40;;;;;;;24.44;100.00;99560.38;5314692;26;19997;-68
2024/04/09 08:11:47;;;;;;;7.95;2.92;;;;;;;24.96;100.00;99561.69;5286311;26;20000;-67
2024/04/09 08:14:15;;;;;;;5.53;2.85;;;;;;;25.55;100.00;99560.78;5286965;26;20067;-68
2024/04/09 08:16:41;;;;;;;3.28;2.85;;;;;;;27.74;100.00;99547.94;5343096;26;20444;-69
2024/04/09 08:19:07;;;;;;;7.25;3.05;;;;;;;29.59;81.62;99547.53;5257718;26;20040;-69
2024/04/09 08:21:34;;;;;;;3.50;2.35;;;;;;;31.02;67.42;99555.03;5285816;26;20297;-68
2024/04/09 08:24:01;;;;;;;3.97;2.08;;;;;;;31.64;62.01;99545.69;5197485;27;19998;-69
2024/04/09 08:26:28;;;;;;;1.90;1.60;;;;;;;31.68;58.79;99542.06;5223930;27;20012;-69
2024/04/09 08:28:58;;;;;;;1.92;1.70;;;;;;;30.96;61.30;99551.53;5148394;27;20110;-70
2024/04/09 08:31:31;;;;;;;1.88;1.75;;;;;;;31.02;63.20;99555.03;5148262;27;20001;-69
2024/04/09 08:33:59;;;;;;;3.60;2.15;;;;;;;31.72;57.62;99543.09;5121733;27;20000;-69
2024/04/09 08:36:27;;;;;;;6.70;2.80;;;;;;;31.86;54.80;99544.00;5110147;28;20014;-71
2024/04/09 08:38:55;;;;;;;6.35;2.92;;;;;;;33.17;51.54;99525.91;5136781;27;20075;-69
2024/04/09 08:41:24;;;;;;;4.07;2.47;;;;;;;33.77;45.49;99523.72;5115808;27;20158;-71
2024/04/09 08:43:51;;;;;;;5.17;2.23;;;;;;;32.98;48.02;99527.16;5089968;27;20006;-73
2024/04/09 08:46:18;;;;;;;5.70;3.40;;;;;;;31.75;51.45;99534.28;5115818;27;20576;-69
2024/04/09 08:48:44;;;;;;;2.95;1.60;;;;;;;30.26;57.41;99519.38;5063012;27;20437;-69
2024/04/09 08:51:13;;;;;;;4.90;1.67;;;;;;;28.65;66.89;99503.09;5089587;27;20055;-69
2024/04/09 08:53:39;;;;;;;4.28;2.10;;;;;;;27.90;73.14;99519.59;5061215;27;20333;-69
2024/04/09 08:56:08;;;;;;;2.75;1.73;;;;;;;26.93;83.10;99516.06;5175565;27;20368;-69
2024/04/09 08:58:35;;;;;;;9.02;2.78;;;;;;;26.08;94.96;99528.06;5126891;27;20017;-69
2024/04/09 09:01:02;;;;;;;9.20;2.53;;;;;;;25.37;100.00;99533.13;5273331;27;19998;-69
2024/04/09 09:03:30;;;;;;;8.25;3.28;;;;;;;24.25;100.00;99526.44;5224283;27;20011;-68
2024/04/09 09:06:01;;;;;;;5.72;2.60;;;;;;;23.49;100.00;99527.06;5308347;27;20435;-69
2024/04/09 09:08:39;;;;;;;6.38;3.20;;;;;;;22.95;100.00;99528.44;5285754;26;20008;-69
2024/04/09 09:11:06;;;;;;;5.25;2.72;;;;;;;22.80;100.00;99530.81;5413663;26;20019;-68
2024/04/09 09:13:35;;;;;;;9.25;3.03;;;;;;;22.55;100.00;99524.03;5385103;26;20069;-68
2024/04/09 09:16:08;;;;;;;5.57;2.83;;;;;;;22.37;100.00;99524.94;5342109;26;20001;-69
2024/04/09 09:18:34;;;;;;;5.88;3.30;;;;;;;22.06;100.00;99536.16;5314469;26;20351;-69
2024/04/09 09:21:01;;;;;;;8.73;3.08;;;;;;;21.83;100.00;99536.13;5285533;26;20012;-68
2024/04/09 09:23:28;;;;;;;8.57;2.60;;;;;;;22.07;100.00;99526.97;5314407;26;19997;-69
2024/04/09 09:25:56;;;;;;;4.10;2.55;;;;;;;22.30;100.00;99529.69;5285296;26;20034;-69
2024/04/09 09:28:22;;;;;;;4.65;2.38;;;;;;;22.15;100.00;99520.38;5342542;26;20004;-68
2024/04/09 09:30:49;;;;;;;5.10;2.40;;;;;;;21.86;100.00;99522.13;5313769;26;20047;-68
2024/04/09 09:33:19;;;;;;;9.52;2.80;;;;;;;21.67;100.00;99517.84;5334869;26;20058;-73
2024/04/09 09:35:48;;;;;;;6.30;2.63;;;;;;;21.55;100.00;99514.28;5377329;26;20029;-69
2024/04/09 09:38:16;;;;;;;5.28;3.08;;;;;;;21.24;100.00;99509.13;5377374;26;20000;-69
2024/04/09 09:40:50;;;;;;;6.18;3.17;;;;;;;21.06;100.00;99514.59;5347688;26;20044;-67
2024/04/09 09:43:26;;;;;;;6.80;3.22;;;;;;;21.01;100.00;99511.75;5347809;26;20004;-69
2024/04/09 09:45:53;;;;;;;8.45;4.05;;;;;;;21.20;100.00;99506.06;5348589;26;20004;-67
2024/04/09 09:48:22;;;;;;;6.95;3.65;;;;;;;21.38;100.00;99508.72;5382638;26;20069;-69
2024/04/09 09:50:50;;;;;;;9.97;4.07;;;;;;;21.35;100.00;99497.53;5354241;26;20000;-67
2024/04/09 09:53:23;;;;;;;8.55;4.07;;;;;;;21.24;100.00;99495.63;5393079;26;19999;-68
2024/04/09 09:55:55;;;;;;;8.40;3.50;;;;;;;21.44;100.00;99491.59;5355212;26;20011;-68
2024/04/09 09:58:23;;;;;;;6.55;3.42;;;;;;;21.51;100.00;99491.50;5413726;26;20010;-69
2024/04/09 10:00:52;;;;;;;3.72;2.95;;;;;;;21.50;100.00;99490.66;5413488;26;20090;-68
2024/04/09 10:03:19;;;;;;;9.15;3.28;;;;;;;21.78;100.00;99489.19;5383717;26;20315;-68
2024/04/09 10:05:56;;;;;;;3.80;2.88;;;;;;;22.12;100.00;99491.94;5386897;26;20010;-68
2024/04/09 10:08:28;;;;;;;4.95;2.90;;;;;;;22.59;100.00;99493.53;5417700;26;20011;-68
2024/04/09 10:10:54;;;;;;;5.65;3.13;;;;;;;22.73;100.00;99494.09;5387507;26;20065;-68
2024/04/09 10:13:25;;;;;;;4.18;2.50;;;;;;;23.16;100.00;99500.66;5329776;26;20027;-68
2024/04/09 10:15:55;;;;;;;3.75;2.53;;;;;;;23.55;100.00;99492.72;5419136;26;20011;-68
2024/04/09 10:18:34;;;;;;;;;;;;;;;23.21;100.00;99489.09;5416992;26;20077;-69
2024/04/09 10:21:03;;;;;;;7.93;4.07;;;;;;;22.42;100.00;99483.69;5358246;26;19932;-68
2024/04/09 10:23:35;;;;;;;6.57;3.13;;;;;;;22.23;100.00;99474.03;5358328;26;20426;-68
2024/04/09 10:26:05;;;;;;;5.03;3.20;;;;;;;22.07;100.00;99472.03;5417066;26;19999;-67
2024/04/09 10:28:33;;;;;;;5.78;3.10;;;;;;;21.96;100.00;99470.19;5387779;26;20011;-69
2024/04/09 10:31:09;;;;;;;5.18;3.15;;;;;;;21.90;100.00;99462.97;5416326;26;20003;-68
2024/04/09 10:33:36;;;;;;;6.55;3.20;;;;;;;21.74;100.00;99475.31;5387349;26;20016;-67
2024/04/09 10:36:07;;;;;;;6.82;3.25;;;;;;;21.55;100.00;99482.69;5386771;26;20011;-68
2024/04/09 10:38:33;;;;;;;8.90;3.50;;;;;;;21.26;100.00;99480.84;5386859;26;20016;-68
2024/04/09 10:41:00;;;;;;;10.73;4.28;;;;;;;20.94;100.00;99490.19;5416462;26;20026;-68
2024/04/09 10:43:28;;;;;;;8.60;3.53;;;;;;;20.74;100.00;99507.69;5387157;26;20007;-74
2024/04/09 10:45:55;;;;;;;9.93;4.03;;;;;;;20.65;100.00;99511.75;5416879;26;20011;-68
2024/04/09 10:48:21;;;;;;;5.20;3.17;;;;;;;20.57;100.00;99514.75;5357395;26;20003;-70
2024/04/09 10:50:48;;;;;;;5.20;3.20;;;;;;;20.50;100.00;99501.34;5357369;26;20497;-67
2024/04/09 10:53:15;;;;;;;4.20;2.58;;;;;;;20.62;100.00;99490.63;5418093;26;20031;-68
2024/04/09 10:55:41;;;;;;;7.32;3.05;;;;;;;20.57;100.00;99491.31;5386800;26;20015;-66
2024/04/09 10:58:13;;;;;;;4.28;2.58;;;;;;;20.56;100.00;99491.53;5386650;26;20024;-66
2024/04/09 11:00:41;;;;;;;6.25;2.70;;;;;;;20.38;100.00;99495.03;5416444;26;20007;-66
2024/04/09 11:03:07;;;;;;;6.43;3.00;;;;;;;20.22;100.00;99492.13;5386735;26;20004;-66
2024/04/09 11:05:34;;;;;;;5.15;2.78;;;;;;;20.11;100.00;99496.34;5386422;26;20000;-67
2024/04/09 11:08:02;;;;;;;8.25;3.30;;;;;;;19.87;100.00;99489.91;5416430;26;20004;-67
2024/04/09 11:10:29;;;;;;;6.72;2.60;;;;;;;19.55;100.00;99472.16;5418245;26;20426;-73
2024/04/09 11:12:57;;;;;;;5.90;2.70;;;;;;;19.42;100.00;99450.69;5416207;26;20066;-67
2024/04/09 11:15:35;;;;;;;3.97;2.58;;;;;;;19.54;100.00;99461.59;5413286;26;20061;-68
2024/04/09 11:18:11;;;;;;;4.70;2.83;;;;;;;19.74;100.00;99468.47;5385143;26;20069;-67
2024/04/09 11:20:37;;;;;;;5.10;3.42;;;;;;;19.77;100.00;99492.28;5356601;26;20575;-67
2024/04/09 11:23:07;;;;;;;5.13;3.03;;;;;;;19.86;100.00;99500.91;5414924;26;20073;-66
2024/04/09 11:25:37;;;;;;;5.38;3.05;;;;;;;19.92;100.00;99492.78;5356001;26;20000;-68